Time;durP1;ratioP1;P1;durP2;ratioP2;P2;SDS_P1;SDS_P2;PMS_P1;PMS_P2;Temp;Humidity;BMP_temperature;BMP_pressure;BME280_temperature;BME280_humidity;BME280_pressure;Samples;Min_cycle;Max_cycle;Signal;HPM_P1;HPM_P2
2021/03/26 00:00:21;;;;;;;34.50;15.83;;;3.20;43.30;;;;;;4341415;33;20523;-35
2021/03/26 00:02:47;;;;;;;27.23;13.07;;;3.10;43.10;;;;;;4341333;33;20075;-34
2021/03/26 00:05:16;;;;;;;32.73;14.97;;;3.10;43.10;;;;;;4341217;33;20110;-36
2021/03/26 00:07:42;;;;;;;71.73;31.63;;;3.10;43.30;;;;;;4316341;33;20189;-37
2021/03/26 00:10:12;;;;;;;26.70;10.03;;;3.10;43.40;;;;;;4328341;33;20094;-35
2021/03/26 00:12:38;;;;;;;39.10;17.60;;;3.10;43.30;;;;;;4340574;33;20104;-36
2021/03/26 00:15:07;;;;;;;55.63;23.23;;;3.10;43.50;;;;;;4340989;33;20154;-36
2021/03/26 00:17:33;;;;;;;56.03;24.63;;;3.00;43.70;;;;;;4340651;33;20063;-36
2021/03/26 00:20:00;;;;;;;39.50;17.23;;;3.00;43.80;;;;;;4316081;33;20074;-37
2021/03/26 00:22:27;;;;;;;36.80;13.60;;;3.00;43.70;;;;;;4332163;33;20075;-36
2021/03/26 00:24:53;;;;;;;47.17;20.87;;;3.00;43.60;;;;;;4341520;33;20073;-36
2021/03/26 00:27:20;;;;;;;48.50;21.40;;;2.90;43.60;;;;;;4341795;33;20144;-36
2021/03/26 00:29:46;;;;;;;48.07;22.63;;;2.90;43.80;;;;;;4343134;32;20150;-36
2021/03/26 00:32:13;;;;;;;38.23;15.87;;;2.90;43.90;;;;;;4343359;32;20504;-36
2021/03/26 00:34:39;;;;;;;36.87;16.27;;;2.90;43.80;;;;;;4343169;32;20507;-36
2021/03/26 00:37:06;;;;;;;39.90;18.37;;;2.90;43.90;;;;;;4341548;33;20182;-36
2021/03/26 00:39:32;;;;;;;40.03;16.30;;;2.90;43.90;;;;;;4343370;32;20107;-36
2021/03/26 00:41:59;;;;;;;30.80;12.27;;;2.90;43.80;;;;;;4342961;32;20094;-36
2021/03/26 00:44:25;;;;;;;32.37;13.60;;;2.90;43.80;;;;;;4343105;32;20060;-35
2021/03/26 00:46:51;;;;;;;33.47;12.33;;;2.90;43.80;;;;;;4325419;33;20074;-35
2021/03/26 00:49:18;;;;;;;21.83;9.40;;;2.80;44.00;;;;;;4310751;33;20067;-34
2021/03/26 00:51:44;;;;;;;31.80;15.63;;;2.80;44.30;;;;;;4281773;33;20114;-35
2021/03/26 00:54:15;;;;;;;35.73;16.57;;;2.90;44.50;;;;;;4270035;33;20080;-35
2021/03/26 00:56:42;;;;;;;38.60;16.57;;;2.90;44.50;;;;;;4270879;33;20092;-36
2021/03/26 00:59:08;;;;;;;34.87;16.70;;;2.90;44.40;;;;;;4281934;33;20205;-36
2021/03/26 01:01:35;;;;;;;36.23;16.77;;;2.90;44.30;;;;;;4282244;33;20144;-37
2021/03/26 01:04:02;;;;;;;39.27;15.57;;;2.90;44.20;;;;;;4281727;33;20068;-36
2021/03/26 01:06:29;;;;;;;42.43;18.73;;;2.90;44.00;;;;;;4281946;33;20083;-37
2021/03/26 01:08:55;;;;;;;35.83;15.93;;;2.90;44.10;;;;;;4281595;33;20072;-36
2021/03/26 01:11:26;;;;;;;41.13;18.83;;;2.90;44.20;;;;;;4270165;33;20151;-36
2021/03/26 01:13:53;;;;;;;37.20;16.93;;;2.90;44.30;;;;;;4282211;33;20062;-36
2021/03/26 01:16:20;;;;;;;34.87;16.50;;;2.80;44.30;;;;;;4258727;33;20067;-36
2021/03/26 01:18:47;;;;;;;36.73;16.47;;;2.80;44.30;;;;;;4284957;33;20568;-36
2021/03/26 01:21:18;;;;;;;38.30;16.47;;;2.80;44.20;;;;;;4285252;33;20572;-35
2021/03/26 01:23:45;;;;;;;37.20;16.27;;;2.90;44.30;;;;;;4319432;33;20094;-36
2021/03/26 01:26:12;;;;;;;42.97;17.53;;;2.80;44.20;;;;;;4345491;33;20075;-36
2021/03/26 01:28:38;;;;;;;38.90;14.10;;;2.90;44.20;;;;;;4345517;33;20512;-35
2021/03/26 01:31:05;;;;;;;38.10;16.37;;;2.80;44.20;;;;;;4343985;33;20462;-35
2021/03/26 01:33:32;;;;;;;32.07;14.47;;;2.80;44.40;;;;;;4343904;33;20058;-36
2021/03/26 01:35:58;;;;;;;40.53;13.13;;;2.80;44.50;;;;;;4327492;33;20102;-36
2021/03/26 01:38:25;;;;;;;2.93;1.97;;;2.80;44.50;;;;;;4315761;33;20082;-37
2021/03/26 01:40:58;;;;;;;8.33;2.13;;;2.70;45.00;;;;;;4327905;33;20082;-37
2021/03/26 01:43:39;;;;;;;11.80;2.50;;;2.70;45.80;;;;;;4315900;33;20130;-37
2021/03/26 01:46:10;;;;;;;20.70;9.80;;;2.70;46.30;;;;;;4315397;33;20184;-37
2021/03/26 01:48:40;;;;;;;6.70;3.27;;;2.70;47.20;;;;;;4326051;33;20087;-35
2021/03/26 01:51:16;;;;;;;10.47;4.67;;;2.70;46.60;;;;;;4318500;33;20104;-36
2021/03/26 01:53:43;;;;;;;6.97;3.20;;;2.70;46.80;;;;;;4330364;33;20075;-36
2021/03/26 01:56:09;;;;;;;11.87;5.40;;;2.70;46.80;;;;;;4330255;33;20157;-37
2021/03/26 01:58:36;;;;;;;14.10;5.87;;;2.70;46.80;;;;;;4330252;33;20067;-36
2021/03/26 02:01:14;;;;;;;14.40;5.77;;;2.70;46.60;;;;;;4330423;33;20509;-36
2021/03/26 02:03:43;;;;;;;20.47;10.27;;;2.70;46.60;;;;;;4317704;33;20075;-36
2021/03/26 02:06:21;;;;;;;1.53;1.43;;;2.70;46.60;;;;;;4345303;32;20076;-37
2021/03/26 02:08:48;;;;;;;22.90;10.07;;;2.70;46.70;;;;;;4359074;32;20131;-37
2021/03/26 02:11:35;;;;;;;30.03;14.80;;;2.70;46.60;;;;;;4359111;32;20071;-36
2021/03/26 02:14:05;;;;;;;37.40;15.93;;;2.70;46.60;;;;;;4357689;32;20142;-36
2021/03/26 02:16:31;;;;;;;31.93;16.23;;;2.70;46.30;;;;;;4345871;32;20183;-35
2021/03/26 02:18:58;;;;;;;30.77;13.50;;;2.70;46.40;;;;;;4346008;32;20055;-38
2021/03/26 02:21:27;;;;;;;38.90;15.63;;;2.80;46.30;;;;;;4359888;32;20085;-36
2021/03/26 02:23:54;;;;;;;37.97;17.13;;;2.90;46.20;;;;;;4360072;32;20153;-36
2021/03/26 02:26:31;;;;;;;34.23;16.37;;;2.90;45.90;;;;;;4315394;33;20082;-36
2021/03/26 02:28:58;;;;;;;32.50;16.47;;;3.00;45.80;;;;;;4315061;33;20110;-36
2021/03/26 02:31:24;;;;;;;34.50;15.93;;;3.00;45.60;;;;;;4327104;33;20082;-36
2021/03/26 02:33:51;;;;;;;36.10;17.17;;;3.00;45.50;;;;;;4327223;33;20551;-36
2021/03/26 02:36:20;;;;;;;31.07;14.20;;;3.00;45.40;;;;;;4315212;33;20150;-36
2021/03/26 02:38:52;;;;;;;27.43;14.37;;;3.00;45.30;;;;;;4326961;33;20492;-36
2021/03/26 02:41:39;;;;;;;31.47;15.77;;;3.00;45.20;;;;;;4327080;33;20087;-36
2021/03/26 02:44:33;;;;;;;37.30;16.73;;;3.00;45.20;;;;;;4303483;33;20106;-36
2021/03/26 02:47:35;;;;;;;37.20;17.23;;;2.90;45.10;;;;;;4326908;33;20067;-37
2021/03/26 02:50:19;;;;;;;42.60;18.77;;;2.90;45.00;;;;;;4316407;33;20063;-37
2021/03/26 02:53:10;;;;;;;37.40;16.90;;;2.90;45.10;;;;;;4314893;33;20063;-37
2021/03/26 02:55:46;;;;;;;38.10;18.10;;;2.80;45.20;;;;;;4317469;33;20071;-37
2021/03/26 02:58:30;;;;;;;40.63;19.57;;;2.80;45.20;;;;;;4338327;33;20153;-36
2021/03/26 03:01:08;;;;;;;45.73;18.00;;;2.80;45.40;;;;;;4331993;33;20071;-37
2021/03/26 03:03:35;;;;;;;43.07;18.93;;;2.80;45.60;;;;;;4343959;33;20081;-36
2021/03/26 03:06:10;;;;;;;42.07;19.40;;;2.80;45.60;;;;;;4342426;33;20539;-37
2021/03/26 03:08:37;;;;;;;43.58;20.05;;;2.80;45.80;;;;;;4330946;33;20055;-37
2021/03/26 03:11:20;;;;;;;38.83;19.27;;;2.90;46.00;;;;;;4330214;33;20059;-36
2021/03/26 03:13:56;;;;;;;44.50;20.90;;;2.90;46.00;;;;;;4342199;33;20078;-36
2021/03/26 03:16:44;;;;;;;49.00;20.37;;;3.00;46.00;;;;;;4330431;33;20180;-36
2021/03/26 03:19:46;;;;;;;48.50;23.60;;;3.00;45.90;;;;;;4332031;33;20058;-36
2021/03/26 03:22:37;;;;;;;45.40;20.57;;;3.10;46.20;;;;;;4342600;33;20145;-37
2021/03/26 03:25:14;;;;;;;39.63;18.03;;;3.20;46.20;;;;;;4317518;33;20129;-37
2021/03/26 03:28:16;;;;;;;36.67;17.80;;;3.30;46.10;;;;;;4329808;33;20082;-37
2021/03/26 03:30:59;;;;;;;38.30;18.17;;;3.40;46.20;;;;;;4329828;33;20106;-37
2021/03/26 03:34:07;;;;;;;41.67;19.90;;;3.40;46.10;;;;;;4329804;33;20142;-40
2021/03/26 03:36:50;;;;;;;37.13;17.17;;;3.60;46.40;;;;;;4340259;33;20110;-38
2021/03/26 03:39:46;;;;;;;31.50;15.83;;;3.80;46.50;;;;;;4341067;33;20582;-37
2021/03/26 03:42:20;;;;;;;27.87;13.57;;;4.00;46.50;;;;;;4329086;33;20062;-37
2021/03/26 03:45:29;;;;;;;33.97;17.10;;;4.30;46.30;;;;;;4328867;33;20113;-36
2021/03/26 03:48:20;;;;;;;34.70;14.63;;;4.60;46.20;;;;;;4299258;33;20055;-37
2021/03/26 03:51:18;;;;;;;27.87;11.87;;;5.00;46.00;;;;;;4318256;33;20268;-39
2021/03/26 03:54:12;;;;;;;23.77;11.97;;;5.30;45.10;;;;;;4330619;33;20074;-38
2021/03/26 03:56:41;;;;;;;18.80;9.83;;;5.60;44.60;;;;;;4320292;33;20217;-38
2021/03/26 03:59:37;;;;;;;13.87;6.93;;;5.90;44.40;;;;;;4328730;33;20525;-38
2021/03/26 04:02:10;;;;;;;9.88;3.03;;;6.10;44.20;;;;;;4303678;33;20176;-37
2021/03/26 04:04:46;;;;;;;3.37;2.47;;;6.30;42.60;;;;;;4314143;33;20064;-39
2021/03/26 04:07:32;;;;;;;4.57;1.53;;;6.40;41.30;;;;;;4313804;33;20079;-38
2021/03/26 04:10:07;;;;;;;3.67;2.20;;;6.50;40.60;;;;;;4326072;33;20047;-38
2021/03/26 04:12:37;;;;;;;4.07;1.95;;;6.60;39.70;;;;;;4326063;33;20073;-38
2021/03/26 04:15:13;;;;;;;1.90;0.87;;;6.60;39.10;;;;;;4326333;33;20069;-38
2021/03/26 04:18:17;;;;;;;6.43;1.57;;;6.70;38.70;;;;;;4326106;33;20087;-38
2021/03/26 04:21:04;;;;;;;5.60;3.87;;;6.80;38.50;;;;;;4325906;33;20079;-38
2021/03/26 04:23:43;;;;;;;5.43;2.93;;;7.00;38.40;;;;;;4325796;33;20082;-38
2021/03/26 04:27:05;;;;;;;12.70;5.33;;;7.10;38.50;;;;;;4325777;33;20149;-37
2021/03/26 04:29:33;;;;;;;10.30;4.07;;;7.30;38.30;;;;;;4267724;33;20175;-36
2021/03/26 04:32:13;;;;;;;8.60;3.83;;;7.50;38.10;;;;;;4267932;33;20540;-37
2021/03/26 04:34:43;;;;;;;4.93;2.83;;;7.70;38.00;;;;;;4268088;33;20084;-38
2021/03/26 04:37:18;;;;;;;8.17;3.37;;;8.00;37.70;;;;;;4255763;33;20529;-38
2021/03/26 04:40:11;;;;;;;8.57;3.07;;;8.30;37.00;;;;;;4284649;33;20163;-38
2021/03/26 04:43:14;;;;;;;12.23;4.03;;;8.60;36.70;;;;;;4296818;33;20522;-39
2021/03/26 04:46:01;;;;;;;14.43;5.93;;;8.80;36.20;;;;;;4274652;33;20068;-38
2021/03/26 04:48:58;;;;;;;15.53;7.70;;;9.10;35.10;;;;;;4287906;33;20099;-38
2021/03/26 04:51:37;;;;;;;16.10;6.87;;;9.30;35.00;;;;;;4261503;33;20155;-39
2021/03/26 04:54:11;;;;;;;17.10;8.05;;;9.60;34.60;;;;;;4261728;33;20062;-38
2021/03/26 04:56:46;;;;;;;22.70;9.30;;;9.90;34.20;;;;;;4273467;33;20086;-37
2021/03/26 04:59:13;;;;;;;21.67;9.10;;;10.10;33.60;;;;;;4261663;33;20536;-37
2021/03/26 05:01:41;;;;;;;16.83;9.43;;;10.40;34.40;;;;;;4261096;33;20142;-38
2021/03/26 05:04:23;;;;;;;20.67;9.15;;;10.60;33.10;;;;;;4278177;33;20177;-39
2021/03/26 05:07:02;;;;;;;19.60;8.82;;;10.80;33.00;;;;;;4344477;33;20059;-38
2021/03/26 05:09:33;;;;;;;19.92;8.07;;;11.00;32.70;;;;;;4346175;32;20101;-37
2021/03/26 05:12:08;;;;;;;17.77;7.82;;;11.20;32.10;;;;;;4332836;33;20116;-37
2021/03/26 05:14:59;;;;;;;19.15;9.13;;;11.50;32.00;;;;;;4333296;33;20126;-39
2021/03/26 05:17:55;;;;;;;19.80;9.45;;;11.70;31.70;;;;;;4344450;33;20109;-38
2021/03/26 05:20:44;;;;;;;18.08;8.38;;;11.90;31.10;;;;;;4344390;33;20681;-37
2021/03/26 05:23:17;;;;;;;12.50;5.28;;;12.00;30.80;;;;;;4334343;33;20066;-38
2021/03/26 05:25:45;;;;;;;19.67;8.85;;;12.10;30.10;;;;;;4345971;32;20056;-37
2021/03/26 05:28:25;;;;;;;20.00;10.10;;;12.10;30.20;;;;;;4307648;33;20463;-38
2021/03/26 05:30:51;;;;;;;20.75;9.77;;;12.10;30.00;;;;;;4344014;33;20156;-39
2021/03/26 05:33:20;;;;;;;20.05;8.77;;;12.10;30.10;;;;;;4332280;33;20083;-38
2021/03/26 05:35:52;;;;;;;16.05;7.75;;;12.20;30.00;;;;;;4345280;33;20098;-38
2021/03/26 05:38:26;;;;;;;20.58;8.93;;;12.20;30.10;;;;;;4343912;33;20099;-38
2021/03/26 05:41:34;;;;;;;20.25;12.15;;;12.30;30.20;;;;;;4343927;33;20067;-38
2021/03/26 05:44:44;;;;;;;25.00;15.63;;;12.30;31.10;;;;;;4346119;33;20070;-40
2021/03/26 05:47:29;;;;;;;26.77;15.25;;;12.50;30.50;;;;;;4345514;32;20082;-40
2021/03/26 05:50:29;;;;;;;30.27;16.20;;;12.90;30.30;;;;;;4360097;32;20065;-39
2021/03/26 05:53:23;;;;;;;28.20;14.48;;;13.20;30.20;;;;;;4359852;32;20648;-39
2021/03/26 05:56:07;;;;;;;37.45;16.50;;;13.60;29.40;;;;;;4359935;32;20066;-40
2021/03/26 05:59:07;;;;;;;25.52;15.27;;;13.80;29.40;;;;;;4358607;32;20090;-39
2021/03/26 06:02:25;;;;;;;24.30;14.95;;;14.10;28.90;;;;;;4360302;32;20070;-38
2021/03/26 06:05:21;;;;;;;28.35;14.32;;;14.40;28.70;;;;;;4350741;32;20074;-39
2021/03/26 06:08:39;;;;;;;25.02;14.50;;;14.60;28.50;;;;;;4347888;32;20177;-39
2021/03/26 06:11:51;;;;;;;22.87;13.35;;;14.80;28.70;;;;;;4286055;33;20067;-41
2021/03/26 06:14:54;;;;;;;24.40;14.45;;;14.90;28.30;;;;;;4232286;33;20061;-41
2021/03/26 06:17:57;;;;;;;27.58;14.30;;;14.90;28.20;;;;;;4241283;33;20603;-41
2021/03/26 06:20:43;;;;;;;32.30;13.27;;;15.00;28.40;;;;;;4241419;33;20573;-39
2021/03/26 06:23:34;;;;;;;24.73;13.88;;;15.00;28.20;;;;;;4241605;33;20075;-41
2021/03/26 06:26:22;;;;;;;30.05;15.40;;;14.80;28.40;;;;;;4226814;33;20627;-41
2021/03/26 06:29:08;;;;;;;31.08;15.75;;;14.70;28.30;;;;;;4226858;33;20192;-39
2021/03/26 06:32:30;;;;;;;36.38;15.38;;;14.50;28.60;;;;;;4216677;33;20093;-40
2021/03/26 06:35:24;;;;;;;23.87;15.10;;;14.40;28.80;;;;;;4226909;33;20168;-41
2021/03/26 06:38:10;;;;;;;32.67;17.35;;;14.30;29.00;;;;;;4226746;33;20152;-40
2021/03/26 06:41:01;;;;;;;28.10;15.50;;;14.30;30.00;;;;;;4226878;33;20075;-39
2021/03/26 06:44:01;;;;;;;33.08;17.05;;;14.50;29.20;;;;;;4216839;33;20097;-40
2021/03/26 06:46:45;;;;;;;28.35;14.52;;;14.50;29.30;;;;;;4220043;33;20111;-40
2021/03/26 06:49:54;;;;;;;41.13;16.20;;;14.60;29.30;;;;;;4232114;33;20079;-40
2021/03/26 06:52:39;;;;;;;36.42;16.35;;;14.70;29.50;;;;;;4285835;33;20076;-39
2021/03/26 06:55:20;;;;;;;;;;;15.00;29.60;;;;;;4298578;33;20091;-40
2021/03/26 06:58:36;;;;;;;31.65;10.23;;;15.40;29.90;;;;;;4283103;33;20067;-41
2021/03/26 07:01:18;;;;;;;21.10;11.10;;;15.60;28.20;;;;;;4283275;33;20075;-41
2021/03/26 07:04:16;;;;;;;11.55;5.15;;;15.80;27.40;;;;;;4287666;33;20170;-40
2021/03/26 07:07:22;;;;;;;12.73;4.32;;;15.80;27.70;;;;;;4300639;33;20072;-40
2021/03/26 07:09:56;;;;;;;10.20;4.85;;;15.70;27.30;;;;;;4301806;33;20076;-40
2021/03/26 07:13:16;;;;;;;4.10;2.37;;;15.70;27.10;;;;;;4300338;33;20079;-40
2021/03/26 07:15:45;;;;;;;9.82;3.60;;;15.70;27.00;;;;;;4283043;33;20605;-40
2021/03/26 07:18:31;;;;;;;8.10;3.37;;;15.60;27.00;;;;;;4282983;33;20157;-41
2021/03/26 07:21:20;;;;;;;3.65;1.62;;;15.70;26.90;;;;;;4272200;33;20091;-40
2021/03/26 07:23:47;;;;;;;6.65;3.08;;;15.80;27.00;;;;;;4271719;33;20099;-40
2021/03/26 07:26:35;;;;;;;9.52;2.90;;;15.80;26.60;;;;;;4283373;33;20059;-39
2021/03/26 07:29:52;;;;;;;12.00;3.35;;;15.90;26.80;;;;;;4291337;33;20150;-40
2021/03/26 07:32:23;;;;;;;8.13;3.22;;;16.00;26.70;;;;;;4297784;33;20060;-40
2021/03/26 07:34:59;;;;;;;7.50;2.83;;;16.00;26.60;;;;;;4285094;33;20103;-41
2021/03/26 07:37:35;;;;;;;6.37;2.30;;;16.00;26.40;;;;;;4297787;33;20507;-41
2021/03/26 07:40:28;;;;;;;7.00;3.67;;;16.00;26.60;;;;;;4297352;33;20077;-43
2021/03/26 07:43:19;;;;;;;15.35;7.07;;;16.00;26.60;;;;;;4297385;33;20503;-40
2021/03/26 07:46:04;;;;;;;17.10;10.73;;;15.90;27.30;;;;;;4285224;33;20107;-40
2021/03/26 07:48:58;;;;;;;17.27;10.50;;;16.20;28.20;;;;;;4306387;33;20245;-40
2021/03/26 07:51:43;;;;;;;23.05;9.02;;;16.50;28.30;;;;;;4305003;32;20067;-40
2021/03/26 07:54:20;;;;;;;21.62;10.25;;;16.80;28.50;;;;;;4357373;32;20071;-40
2021/03/26 07:57:40;;;;;;;20.48;11.40;;;16.90;28.40;;;;;;4344639;32;20101;-40
2021/03/26 08:00:41;;;;;;;25.02;10.38;;;17.10;28.20;;;;;;4312049;33;20133;-42
2021/03/26 08:03:23;;;;;;;17.02;6.78;;;17.20;28.30;;;;;;4301447;33;20075;-41
2021/03/26 08:06:13;;;;;;;12.77;5.12;;;17.20;28.20;;;;;;4300018;33;20087;-40
2021/03/26 08:09:01;;;;;;;2.47;1.35;;;17.20;27.00;;;;;;4299957;33;20163;-41
2021/03/26 08:11:43;;;;;;;3.65;1.40;;;17.20;26.80;;;;;;4311414;33;20070;-41
2021/03/26 08:14:38;;;;;;;3.85;1.33;;;17.20;26.40;;;;;;4300162;33;20197;-41
2021/03/26 08:17:45;;;;;;;6.15;3.17;;;17.10;26.40;;;;;;4288594;33;20071;-41
2021/03/26 08:20:56;;;;;;;3.58;1.23;;;17.00;26.20;;;;;;4299282;33;20181;-40
2021/03/26 08:23:52;;;;;;;4.97;2.90;;;16.80;26.30;;;;;;4306528;33;20079;-40
2021/03/26 08:26:43;;;;;;;1.12;0.50;;;16.70;26.90;;;;;;4310709;33;20083;-41
2021/03/26 08:29:34;;;;;;;0.47;0.47;;;16.60;27.10;;;;;;4311503;33;20557;-42
2021/03/26 08:32:24;;;;;;;2.12;0.88;;;16.40;26.90;;;;;;4291084;33;20099;-41
2021/03/26 08:35:43;;;;;;;1.95;1.02;;;16.40;26.70;;;;;;4352396;32;20062;-42
2021/03/26 08:38:55;;;;;;;2.65;1.20;;;16.40;27.00;;;;;;4303480;32;20086;-41
2021/03/26 08:41:28;;;;;;;1.33;1.02;;;16.40;26.20;;;;;;4346933;32;20086;-42
2021/03/26 08:43:55;;;;;;;7.53;1.05;;;16.50;26.50;;;;;;4356039;32;20094;-42
2021/03/26 08:46:27;;;;;;;1.02;0.50;;;16.50;26.30;;;;;;4357793;32;20078;-41
2021/03/26 08:48:56;;;;;;;1.20;0.73;;;16.40;26.90;;;;;;4344247;32;20523;-41
2021/03/26 08:51:57;;;;;;;6.30;1.25;;;16.40;26.60;;;;;;4343309;33;20067;-42
2021/03/26 08:55:00;;;;;;;2.97;1.02;;;16.40;26.60;;;;;;4342815;33;20054;-42
2021/03/26 08:57:57;;;;;;;3.15;0.95;;;16.50;26.70;;;;;;4331571;33;20150;-43
2021/03/26 09:00:49;;;;;;;1.02;0.80;;;16.60;26.30;;;;;;4341642;33;20056;-42
2021/03/26 09:03:52;;;;;;;1.00;0.73;;;16.60;26.10;;;;;;4341348;33;20062;-41
2021/03/26 09:06:46;;;;;;;3.62;1.45;;;16.80;26.10;;;;;;4341325;33;20519;-42
2021/03/26 09:10:03;;;;;;;2.62;1.85;;;16.80;26.20;;;;;;4343223;32;20063;-41
2021/03/26 09:12:49;;;;;;;1.50;0.40;;;16.90;25.80;;;;;;4339723;33;20140;-42
2021/03/26 09:15:32;;;;;;;1.60;0.88;;;17.00;26.20;;;;;;4318171;33;20458;-40
2021/03/26 09:18:23;;;;;;;2.28;0.77;;;16.90;25.80;;;;;;4341527;33;20067;-43
2021/03/26 09:21:26;;;;;;;1.45;0.93;;;17.00;25.80;;;;;;4342516;33;20580;-43
2021/03/26 09:24:08;;;;;;;4.50;1.60;;;17.00;26.50;;;;;;4341299;33;20495;-41
2021/03/26 09:27:17;;;;;;;6.18;0.98;;;17.00;26.20;;;;;;4342484;32;20104;-41
2021/03/26 09:30:07;;;;;;;2.80;0.93;;;17.10;26.10;;;;;;4341599;33;20150;-42
2021/03/26 09:32:45;;;;;;;1.20;0.90;;;17.20;26.10;;;;;;4342921;32;20075;-44
2021/03/26 09:35:37;;;;;;;3.22;0.90;;;17.10;25.70;;;;;;4330222;33;20138;-41
2021/03/26 09:38:13;;;;;;;5.65;1.85;;;17.10;25.90;;;;;;4342630;32;20085;-42
2021/03/26 09:40:51;;;;;;;;;;;17.20;26.10;;;;;;4345623;33;20440;-42
2021/03/26 09:44:06;;;;;;;2.08;0.70;;;17.30;25.90;;;;;;4344392;33;19954;-40
2021/03/26 09:46:48;;;;;;;1.92;0.90;;;17.40;25.80;;;;;;4343824;33;20115;-42
2021/03/26 09:49:46;;;;;;;3.22;0.43;;;17.50;25.70;;;;;;4346888;32;20094;-41
2021/03/26 09:52:40;;;;;;;2.33;0.80;;;17.40;25.70;;;;;;4360086;32;20462;-42
2021/03/26 09:55:32;;;;;;;2.95;0.77;;;17.40;25.30;;;;;;4347605;32;20058;-41
2021/03/26 09:58:26;;;;;;;1.62;0.70;;;17.50;25.40;;;;;;4360235;32;20059;-42
2021/03/26 10:00:57;;;;;;;0.60;0.50;;;17.50;25.40;;;;;;4346413;32;20517;-40
2021/03/26 10:03:38;;;;;;;2.08;0.77;;;17.50;25.70;;;;;;4359620;32;20069;-40
2021/03/26 10:06:42;;;;;;;3.03;0.73;;;17.40;25.80;;;;;;4346590;32;20082;-40
2021/03/26 10:09:37;;;;;;;0.93;0.50;;;17.40;25.80;;;;;;4358345;32;20234;-40
2021/03/26 10:12:10;;;;;;;0.98;0.60;;;17.50;25.50;;;;;;4305611;33;20157;-42
2021/03/26 10:15:05;;;;;;;1.70;0.80;;;17.60;24.90;;;;;;4327845;33;20071;-40
2021/03/26 10:17:46;;;;;;;5.97;0.80;;;17.80;25.40;;;;;;4315697;33;20075;-41
2021/03/26 10:20:38;;;;;;;0.47;0.25;;;17.90;25.20;;;;;;4315314;33;20151;-40
2021/03/26 10:23:45;;;;;;;0.32;0.28;;;17.90;24.70;;;;;;4316805;33;20071;-40
2021/03/26 10:26:27;;;;;;;4.82;0.70;;;17.90;25.10;;;;;;4327306;33;20158;-42
2021/03/26 10:29:12;;;;;;;1.95;0.60;;;17.90;24.90;;;;;;4314923;33;20070;-40
2021/03/26 10:31:39;;;;;;;1.77;0.90;;;17.90;25.10;;;;;;4316680;33;20098;-40
2021/03/26 10:34:07;;;;;;;1.60;0.60;;;17.90;24.80;;;;;;4327490;33;20071;-40
2021/03/26 10:36:57;;;;;;;1.98;0.77;;;17.90;25.20;;;;;;4327348;33;20679;-39
2021/03/26 10:39:53;;;;;;;2.05;0.50;;;17.90;25.10;;;;;;4303331;33;20067;-40
2021/03/26 10:42:41;;;;;;;1.95;0.85;;;17.80;25.10;;;;;;4332878;32;20089;-40
2021/03/26 10:45:38;;;;;;;0.98;0.60;;;17.80;25.10;;;;;;4357709;32;20539;-40
2021/03/26 10:48:05;;;;;;;0.50;0.37;;;17.70;25.40;;;;;;4332967;33;20062;-41
2021/03/26 10:51:18;;;;;;;1.58;0.50;;;17.70;25.00;;;;;;4344189;32;20149;-40
2021/03/26 10:54:21;;;;;;;0.98;0.65;;;17.60;25.50;;;;;;4343942;32;20062;-40
2021/03/26 10:57:00;;;;;;;1.27;0.85;;;17.70;25.40;;;;;;4330806;33;20087;-39
2021/03/26 10:59:46;;;;;;;3.58;0.70;;;17.60;25.20;;;;;;4343951;33;20158;-40
2021/03/26 11:02:37;;;;;;;0.95;0.50;;;17.70;25.40;;;;;;4342827;33;20063;-40
2021/03/26 11:05:19;;;;;;;2.62;0.62;;;17.70;25.70;;;;;;4342426;33;20169;-39
2021/03/26 11:07:56;;;;;;;2.70;0.80;;;17.60;25.50;;;;;;4343676;33;20070;-39
2021/03/26 11:10:36;;;;;;;5.00;0.60;;;17.50;25.30;;;;;;4343618;33;20082;-38
2021/03/26 11:13:41;;;;;;;2.83;0.90;;;17.50;25.60;;;;;;4331438;33;20085;-39
2021/03/26 11:16:24;;;;;;;5.00;0.75;;;17.50;25.10;;;;;;4344016;32;20161;-43
2021/03/26 11:19:05;;;;;;;2.05;0.68;;;17.50;25.60;;;;;;4342744;33;20066;-40
2021/03/26 11:21:45;;;;;;;1.17;0.60;;;17.50;26.00;;;;;;4341903;33;20160;-39
2021/03/26 11:24:12;;;;;;;1.02;0.50;;;17.60;25.40;;;;;;4341950;33;20154;-41
2021/03/26 11:27:15;;;;;;;1.17;0.65;;;17.60;25.60;;;;;;4342384;33;20075;-39
2021/03/26 11:29:43;;;;;;;5.30;1.08;;;17.60;25.40;;;;;;4354763;32;20141;-40
2021/03/26 11:32:23;;;;;;;3.60;0.82;;;17.50;25.40;;;;;;4342311;33;20066;-39
2021/03/26 11:35:00;;;;;;;1.70;0.60;;;17.40;26.00;;;;;;4330571;33;20126;-40
2021/03/26 11:37:55;;;;;;;0.45;0.30;;;17.40;25.90;;;;;;4329819;33;20067;-40
2021/03/26 11:40:44;;;;;;;1.00;0.60;;;17.30;25.50;;;;;;4331051;33;20518;-39
2021/03/26 11:43:22;;;;;;;1.12;0.65;;;17.40;25.80;;;;;;4342060;33;20071;-40
2021/03/26 11:45:55;;;;;;;1.30;0.60;;;17.40;25.40;;;;;;4307144;33;20070;-40
2021/03/26 11:48:55;;;;;;;1.87;1.08;;;17.40;25.50;;;;;;4352656;32;20498;-39
2021/03/26 11:51:39;;;;;;;1.50;0.40;;;17.40;25.80;;;;;;4358584;32;20475;-38
2021/03/26 11:54:29;;;;;;;1.08;0.60;;;17.40;25.70;;;;;;4356616;32;20070;-40
2021/03/26 11:57:44;;;;;;;5.25;2.65;;;17.30;25.50;;;;;;4357001;32;20140;-40
2021/03/26 12:00:26;;;;;;;1.52;0.77;;;17.30;26.00;;;;;;4356577;32;20076;-40
2021/03/26 12:03:23;;;;;;;1.67;0.50;;;17.20;25.90;;;;;;4356628;32;20070;-42
2021/03/26 12:06:15;;;;;;;1.62;1.00;;;17.10;26.00;;;;;;4356691;32;20471;-40
2021/03/26 12:08:58;;;;;;;4.00;0.45;;;17.00;26.40;;;;;;4357057;32;20145;-39
2021/03/26 12:11:54;;;;;;;2.15;0.57;;;16.90;26.40;;;;;;4327283;33;20063;-40
2021/03/26 12:14:47;;;;;;;1.42;0.70;;;16.90;26.50;;;;;;4327736;33;20079;-39
2021/03/26 12:17:34;;;;;;;0.50;0.40;;;16.90;26.10;;;;;;4317781;33;20113;-40
2021/03/26 12:20:08;;;;;;;0.70;0.55;;;17.00;26.20;;;;;;4326867;33;20082;-39
2021/03/26 12:23:03;;;;;;;0.98;0.65;;;17.10;26.30;;;;;;4327115;33;20063;-39
2021/03/26 12:25:45;;;;;;;0.77;0.60;;;17.00;26.00;;;;;;4317414;33;20567;-39
2021/03/26 12:28:52;;;;;;;2.75;0.73;;;17.00;26.60;;;;;;4316513;33;20726;-39
2021/03/26 12:31:28;;;;;;;1.17;0.65;;;17.10;26.70;;;;;;4326049;33;20186;-39
2021/03/26 12:34:27;;;;;;;0.40;0.40;;;17.00;26.10;;;;;;4326943;33;20074;-39
2021/03/26 12:37:07;;;;;;;0.47;0.40;;;17.00;26.50;;;;;;4317432;33;20553;-40
2021/03/26 12:39:40;;;;;;;1.83;0.60;;;17.00;26.20;;;;;;4326988;33;20139;-39
2021/03/26 12:42:39;;;;;;;2.97;0.60;;;16.90;26.30;;;;;;4328043;33;20051;-39
2021/03/26 12:45:26;;;;;;;1.73;0.52;;;16.90;26.60;;;;;;4326489;33;20098;-39
2021/03/26 12:48:36;;;;;;;1.42;0.65;;;17.00;26.80;;;;;;4310218;33;20161;-40
2021/03/26 12:51:33;;;;;;;3.33;0.50;;;16.90;26.30;;;;;;4311091;33;20095;-39
2021/03/26 12:54:56;;;;;;;0.55;0.40;;;17.00;26.70;;;;;;4310943;33;20567;-39
2021/03/26 12:57:44;;;;;;;1.70;0.77;;;17.00;26.60;;;;;;4305433;33;20059;-39
2021/03/26 13:00:37;;;;;;;2.90;0.82;;;16.90;26.20;;;;;;4312050;33;20157;-39
2021/03/26 13:03:32;;;;;;;1.00;0.55;;;16.90;26.20;;;;;;4312192;33;20075;-39
2021/03/26 13:06:14;;;;;;;1.62;0.52;;;16.90;26.00;;;;;;4312121;33;20475;-39
2021/03/26 13:08:48;;;;;;;1.37;0.80;;;16.90;26.40;;;;;;4312154;33;20176;-38
2021/03/26 13:11:39;;;;;;;1.35;0.35;;;16.90;26.70;;;;;;4341044;33;20087;-40
2021/03/26 13:14:20;;;;;;;1.42;0.60;;;16.90;26.50;;;;;;4331682;33;20087;-39
2021/03/26 13:16:52;;;;;;;2.60;1.10;;;16.90;26.20;;;;;;4332350;33;20101;-40
2021/03/26 13:19:21;;;;;;;3.25;1.35;;;16.90;26.20;;;;;;4344077;33;20152;-39
2021/03/26 13:21:51;;;;;;;1.40;0.68;;;16.90;26.30;;;;;;4345613;33;20058;-38
2021/03/26 13:24:43;;;;;;;2.08;0.65;;;16.90;26.50;;;;;;4344103;33;20154;-38
2021/03/26 13:27:23;;;;;;;4.18;1.30;;;16.90;26.20;;;;;;4323614;33;20490;-39
2021/03/26 13:30:10;;;;;;;3.10;1.67;;;16.90;26.00;;;;;;4327722;33;20107;-38
2021/03/26 13:32:59;;;;;;;3.40;0.90;;;16.90;26.50;;;;;;4313169;33;20154;-40
2021/03/26 13:35:35;;;;;;;2.75;1.15;;;16.80;26.80;;;;;;4313854;33;20098;-40
2021/03/26 13:38:33;;;;;;;2.65;1.45;;;16.80;26.40;;;;;;4290214;33;20499;-39
2021/03/26 13:40:59;;;;;;;1.23;0.80;;;16.70;26.60;;;;;;4310680;33;20067;-39
2021/03/26 13:43:29;;;;;;;0.37;0.30;;;16.60;26.10;;;;;;4301696;33;20452;-39
2021/03/26 13:46:02;;;;;;;0.93;0.40;;;16.60;26.30;;;;;;4289336;33;20124;-39
2021/03/26 13:48:37;;;;;;;1.30;0.70;;;16.50;26.40;;;;;;4310774;33;20063;-38
2021/03/26 13:51:06;;;;;;;;;;;16.50;26.20;;;;;;4304464;33;20083;-38
2021/03/26 13:53:49;;;;;;;1.62;0.95;;;16.60;26.40;;;;;;4327662;33;19966;-39
2021/03/26 13:56:30;;;;;;;2.70;0.98;;;16.60;26.30;;;;;;4317069;33;20067;-38
2021/03/26 13:59:25;;;;;;;1.60;0.80;;;16.50;26.20;;;;;;4327713;33;20428;-39
2021/03/26 14:01:52;;;;;;;1.85;0.65;;;16.50;26.30;;;;;;4343176;32;20113;-39
2021/03/26 14:04:30;;;;;;;2.20;1.00;;;16.40;26.70;;;;;;4359146;32;20584;-39
2021/03/26 14:07:02;;;;;;;0.98;0.55;;;16.40;26.80;;;;;;4347163;32;20062;-38